sensor_id;sensor_type;location;lat;lon;timestamp;P1;durP1;ratioP1;P2;durP2;ratioP2
15281;SDS011;7742;44.320;19.820;2023-01-24T00:01:51;22.17;;;20.98;;
15281;SDS011;7742;44.320;19.820;2023-01-24T00:04:19;23.58;;;22.27;;
15281;SDS011;7742;44.320;19.820;2023-01-24T00:06:46;22.55;;;21.17;;
15281;SDS011;7742;44.320;19.820;2023-01-24T00:09:13;21.23;;;19.95;;
15281;SDS011;7742;44.320;19.820;2023-01-24T00:11:41;21.65;;;20.40;;
15281;SDS011;7742;44.320;19.820;2023-01-24T00:14:08;21.30;;;20.10;;
15281;SDS011;7742;44.320;19.820;2023-01-24T00:16:35;22.05;;;20.80;;
15281;SDS011;7742;44.320;19.820;2023-01-24T00:19:02;21.58;;;20.27;;
15281;SDS011;7742;44.320;19.820;2023-01-24T00:21:31;22.43;;;21.10;;
15281;SDS011;7742;44.320;19.820;2023-01-24T00:23:58;22.00;;;20.70;;
15281;SDS011;7742;44.320;19.820;2023-01-24T00:26:25;23.08;;;21.77;;
15281;SDS011;7742;44.320;19.820;2023-01-24T00:28:52;20.90;;;19.70;;
15281;SDS011;7742;44.320;19.820;2023-01-24T00:31:19;21.83;;;20.55;;
15281;SDS011;7742;44.320;19.820;2023-01-24T00:33:47;22.58;;;21.27;;
15281;SDS011;7742;44.320;19.820;2023-01-24T00:36:15;21.95;;;20.63;;
15281;SDS011;7742;44.320;19.820;2023-01-24T00:38:43;21.70;;;20.50;;
15281;SDS011;7742;44.320;19.820;2023-01-24T00:41:10;22.75;;;21.45;;
15281;SDS011;7742;44.320;19.820;2023-01-24T00:43:38;22.85;;;21.55;;
15281;SDS011;7742;44.320;19.820;2023-01-24T00:46:05;23.90;;;22.60;;
15281;SDS011;7742;44.320;19.820;2023-01-24T00:48:32;22.25;;;21.05;;
15281;SDS011;7742;44.320;19.820;2023-01-24T00:51:00;22.83;;;21.42;;
15281;SDS011;7742;44.320;19.820;2023-01-24T00:53:27;22.98;;;21.63;;
15281;SDS011;7742;44.320;19.820;2023-01-24T00:55:56;22.33;;;21.08;;
15281;SDS011;7742;44.320;19.820;2023-01-24T00:58:23;22.65;;;21.35;;
15281;SDS011;7742;44.320;19.820;2023-01-24T01:00:53;22.83;;;21.53;;
15281;SDS011;7742;44.320;19.820;2023-01-24T01:03:21;21.67;;;20.38;;
15281;SDS011;7742;44.320;19.820;2023-01-24T01:05:48;22.08;;;20.77;;
15281;SDS011;7742;44.320;19.820;2023-01-24T01:08:15;23.77;;;22.38;;
15281;SDS011;7742;44.320;19.820;2023-01-24T01:10:42;23.85;;;22.35;;
15281;SDS011;7742;44.320;19.820;2023-01-24T01:13:12;23.15;;;21.75;;
15281;SDS011;7742;44.320;19.820;2023-01-24T01:15:39;23.98;;;22.50;;
15281;SDS011;7742;44.320;19.820;2023-01-24T01:18:06;23.95;;;22.55;;
15281;SDS011;7742;44.320;19.820;2023-01-24T01:20:34;23.60;;;22.10;;
15281;SDS011;7742;44.320;19.820;2023-01-24T01:23:01;23.38;;;22.08;;
15281;SDS011;7742;44.320;19.820;2023-01-24T01:25:28;23.75;;;22.35;;
15281;SDS011;7742;44.320;19.820;2023-01-24T01:27:55;23.58;;;22.17;;
15281;SDS011;7742;44.320;19.820;2023-01-24T01:30:24;23.13;;;21.83;;
15281;SDS011;7742;44.320;19.820;2023-01-24T01:32:51;23.10;;;21.80;;
15281;SDS011;7742;44.320;19.820;2023-01-24T01:35:18;23.20;;;21.90;;
15281;SDS011;7742;44.320;19.820;2023-01-24T01:37:45;22.95;;;21.65;;
15281;SDS011;7742;44.320;19.820;2023-01-24T01:40:13;23.38;;;22.08;;
15281;SDS011;7742;44.320;19.820;2023-01-24T01:42:44;22.30;;;21.00;;
15281;SDS011;7742;44.320;19.820;2023-01-24T01:45:31;23.27;;;21.95;;
15281;SDS011;7742;44.320;19.820;2023-01-24T01:48:02;21.55;;;20.27;;
15281;SDS011;7742;44.320;19.820;2023-01-24T01:50:32;22.45;;;21.10;;
15281;SDS011;7742;44.320;19.820;2023-01-24T01:53:02;23.98;;;22.48;;
15281;SDS011;7742;44.320;19.820;2023-01-24T01:55:31;23.60;;;22.30;;
15281;SDS011;7742;44.320;19.820;2023-01-24T01:58:00;23.23;;;21.80;;
15281;SDS011;7742;44.320;19.820;2023-01-24T02:00:27;22.83;;;21.42;;
15281;SDS011;7742;44.320;19.820;2023-01-24T02:02:57;21.52;;;20.23;;
15281;SDS011;7742;44.320;19.820;2023-01-24T02:05:47;23.50;;;22.00;;
15281;SDS011;7742;44.320;19.820;2023-01-24T02:08:15;22.15;;;20.65;;
15281;SDS011;7742;44.320;19.820;2023-01-24T02:10:47;23.38;;;21.98;;
15281;SDS011;7742;44.320;19.820;2023-01-24T02:13:32;24.85;;;23.30;;
15281;SDS011;7742;44.320;19.820;2023-01-24T02:16:00;24.23;;;22.73;;
15281;SDS011;7742;44.320;19.820;2023-01-24T02:18:30;24.45;;;22.95;;
15281;SDS011;7742;44.320;19.820;2023-01-24T02:20:58;23.52;;;22.13;;
15281;SDS011;7742;44.320;19.820;2023-01-24T02:23:27;23.73;;;22.33;;
15281;SDS011;7742;44.320;19.820;2023-01-24T02:26:05;24.58;;;23.08;;
15281;SDS011;7742;44.320;19.820;2023-01-24T02:28:34;25.55;;;23.95;;
15281;SDS011;7742;44.320;19.820;2023-01-24T02:31:02;24.10;;;22.60;;
15281;SDS011;7742;44.320;19.820;2023-01-24T02:33:30;24.48;;;22.95;;
15281;SDS011;7742;44.320;19.820;2023-01-24T02:36:10;24.92;;;23.25;;
15281;SDS011;7742;44.320;19.820;2023-01-24T02:38:40;23.95;;;22.42;;
15281;SDS011;7742;44.320;19.820;2023-01-24T02:41:09;23.75;;;22.35;;
15281;SDS011;7742;44.320;19.820;2023-01-24T02:43:36;23.63;;;22.20;;
15281;SDS011;7742;44.320;19.820;2023-01-24T02:46:07;22.90;;;21.50;;
15281;SDS011;7742;44.320;19.820;2023-01-24T02:48:34;22.55;;;21.23;;
15281;SDS011;7742;44.320;19.820;2023-01-24T02:51:01;22.63;;;21.30;;
15281;SDS011;7742;44.320;19.820;2023-01-24T02:53:45;23.98;;;22.58;;
15281;SDS011;7742;44.320;19.820;2023-01-24T02:56:14;24.92;;;23.42;;
15281;SDS011;7742;44.320;19.820;2023-01-24T02:58:59;22.77;;;21.38;;
15281;SDS011;7742;44.320;19.820;2023-01-24T03:01:26;22.52;;;21.13;;
15281;SDS011;7742;44.320;19.820;2023-01-24T03:03:54;23.67;;;22.27;;
15281;SDS011;7742;44.320;19.820;2023-01-24T03:06:22;24.13;;;22.63;;
15281;SDS011;7742;44.320;19.820;2023-01-24T03:08:49;23.48;;;22.10;;
15281;SDS011;7742;44.320;19.820;2023-01-24T03:11:17;22.75;;;21.42;;
15281;SDS011;7742;44.320;19.820;2023-01-24T03:13:44;22.07;;;20.77;;
15281;SDS011;7742;44.320;19.820;2023-01-24T03:16:28;21.77;;;20.53;;
15281;SDS011;7742;44.320;19.820;2023-01-24T03:19:13;21.05;;;19.90;;
15281;SDS011;7742;44.320;19.820;2023-01-24T03:21:57;21.15;;;19.95;;
15281;SDS011;7742;44.320;19.820;2023-01-24T03:24:42;21.67;;;20.42;;
15281;SDS011;7742;44.320;19.820;2023-01-24T03:27:28;21.10;;;19.90;;
15281;SDS011;7742;44.320;19.820;2023-01-24T03:30:12;21.52;;;20.33;;
15281;SDS011;7742;44.320;19.820;2023-01-24T03:33:00;21.15;;;19.85;;
15281;SDS011;7742;44.320;19.820;2023-01-24T03:35:44;21.05;;;19.95;;
15281;SDS011;7742;44.320;19.820;2023-01-24T03:38:19;20.52;;;19.33;;
15281;SDS011;7742;44.320;19.820;2023-01-24T03:41:04;21.02;;;19.83;;
15281;SDS011;7742;44.320;19.820;2023-01-24T03:43:33;20.55;;;19.38;;
15281;SDS011;7742;44.320;19.820;2023-01-24T03:46:00;21.42;;;20.27;;
15281;SDS011;7742;44.320;19.820;2023-01-24T03:48:27;21.13;;;20.02;;
15281;SDS011;7742;44.320;19.820;2023-01-24T03:50:59;21.10;;;19.80;;
15281;SDS011;7742;44.320;19.820;2023-01-24T03:53:44;20.95;;;19.83;;
15281;SDS011;7742;44.320;19.820;2023-01-24T03:56:11;20.92;;;19.73;;
15281;SDS011;7742;44.320;19.820;2023-01-24T03:58:39;20.95;;;19.75;;
15281;SDS011;7742;44.320;19.820;2023-01-24T04:01:07;21.20;;;20.00;;
15281;SDS011;7742;44.320;19.820;2023-01-24T04:03:34;21.35;;;20.05;;
15281;SDS011;7742;44.320;19.820;2023-01-24T04:06:01;21.02;;;19.83;;
15281;SDS011;7742;44.320;19.820;2023-01-24T04:08:28;20.88;;;19.77;;
15281;SDS011;7742;44.320;19.820;2023-01-24T04:10:55;20.58;;;19.38;;
15281;SDS011;7742;44.320;19.820;2023-01-24T04:13:23;20.65;;;19.55;;
15281;SDS011;7742;44.320;19.820;2023-01-24T04:15:51;20.27;;;19.00;;
15281;SDS011;7742;44.320;19.820;2023-01-24T04:18:18;19.20;;;18.20;;
15281;SDS011;7742;44.320;19.820;2023-01-24T04:20:46;20.45;;;19.45;;
15281;SDS011;7742;44.320;19.820;2023-01-24T04:23:13;19.90;;;18.80;;
15281;SDS011;7742;44.320;19.820;2023-01-24T04:25:40;20.38;;;19.27;;
15281;SDS011;7742;44.320;19.820;2023-01-24T04:28:07;20.05;;;18.95;;
15281;SDS011;7742;44.320;19.820;2023-01-24T04:30:34;19.07;;;18.07;;
15281;SDS011;7742;44.320;19.820;2023-01-24T04:33:03;19.40;;;18.40;;
15281;SDS011;7742;44.320;19.820;2023-01-24T04:35:30;19.50;;;18.50;;
15281;SDS011;7742;44.320;19.820;2023-01-24T04:37:57;20.17;;;19.08;;
15281;SDS011;7742;44.320;19.820;2023-01-24T04:40:25;20.65;;;19.45;;
15281;SDS011;7742;44.320;19.820;2023-01-24T04:42:54;19.80;;;18.77;;
15281;SDS011;7742;44.320;19.820;2023-01-24T04:45:22;19.43;;;18.43;;
15281;SDS011;7742;44.320;19.820;2023-01-24T04:47:50;19.65;;;18.60;;
15281;SDS011;7742;44.320;19.820;2023-01-24T04:50:18;19.48;;;18.48;;
15281;SDS011;7742;44.320;19.820;2023-01-24T04:52:45;19.65;;;18.65;;
15281;SDS011;7742;44.320;19.820;2023-01-24T04:55:13;19.25;;;18.25;;
15281;SDS011;7742;44.320;19.820;2023-01-24T04:57:40;19.17;;;18.17;;
15281;SDS011;7742;44.320;19.820;2023-01-24T05:00:09;19.50;;;18.50;;
15281;SDS011;7742;44.320;19.820;2023-01-24T05:02:36;20.23;;;19.13;;
15281;SDS011;7742;44.320;19.820;2023-01-24T05:05:04;20.52;;;19.42;;
15281;SDS011;7742;44.320;19.820;2023-01-24T05:07:33;19.98;;;18.98;;
15281;SDS011;7742;44.320;19.820;2023-01-24T05:10:01;19.55;;;18.55;;
15281;SDS011;7742;44.320;19.820;2023-01-24T05:12:28;19.40;;;18.40;;
15281;SDS011;7742;44.320;19.820;2023-01-24T05:14:55;19.13;;;18.13;;
15281;SDS011;7742;44.320;19.820;2023-01-24T05:17:22;19.75;;;18.75;;
15281;SDS011;7742;44.320;19.820;2023-01-24T05:19:49;19.02;;;18.00;;
15281;SDS011;7742;44.320;19.820;2023-01-24T05:22:16;20.33;;;19.33;;
15281;SDS011;7742;44.320;19.820;2023-01-24T05:24:45;19.38;;;18.38;;
15281;SDS011;7742;44.320;19.820;2023-01-24T05:27:12;19.35;;;18.35;;
15281;SDS011;7742;44.320;19.820;2023-01-24T05:29:39;19.95;;;18.95;;
15281;SDS011;7742;44.320;19.820;2023-01-24T05:32:06;19.17;;;18.17;;
15281;SDS011;7742;44.320;19.820;2023-01-24T05:34:33;19.30;;;18.40;;
15281;SDS011;7742;44.320;19.820;2023-01-24T05:37:00;19.13;;;18.20;;
15281;SDS011;7742;44.320;19.820;2023-01-24T05:39:27;19.58;;;18.58;;
15281;SDS011;7742;44.320;19.820;2023-01-24T05:41:56;18.75;;;17.85;;
15281;SDS011;7742;44.320;19.820;2023-01-24T05:44:23;18.65;;;17.73;;
15281;SDS011;7742;44.320;19.820;2023-01-24T05:46:50;19.10;;;18.10;;
15281;SDS011;7742;44.320;19.820;2023-01-24T05:49:17;19.10;;;18.17;;
15281;SDS011;7742;44.320;19.820;2023-01-24T05:51:45;17.73;;;16.92;;
15281;SDS011;7742;44.320;19.820;2023-01-24T05:54:12;18.30;;;17.40;;
15281;SDS011;7742;44.320;19.820;2023-01-24T05:56:39;19.25;;;18.25;;
15281;SDS011;7742;44.320;19.820;2023-01-24T05:59:07;19.05;;;18.10;;
15281;SDS011;7742;44.320;19.820;2023-01-24T06:01:35;18.80;;;17.90;;
15281;SDS011;7742;44.320;19.820;2023-01-24T06:04:02;19.30;;;18.30;;
15281;SDS011;7742;44.320;19.820;2023-01-24T06:06:30;18.55;;;17.65;;
15281;SDS011;7742;44.320;19.820;2023-01-24T06:08:57;19.37;;;18.37;;
15281;SDS011;7742;44.320;19.820;2023-01-24T06:11:25;19.37;;;18.37;;
15281;SDS011;7742;44.320;19.820;2023-01-24T06:13:53;19.38;;;18.38;;
15281;SDS011;7742;44.320;19.820;2023-01-24T06:16:23;19.08;;;18.08;;
15281;SDS011;7742;44.320;19.820;2023-01-24T06:18:51;18.98;;;18.08;;
15281;SDS011;7742;44.320;19.820;2023-01-24T06:21:23;19.33;;;18.37;;
15281;SDS011;7742;44.320;19.820;2023-01-24T06:23:58;19.55;;;18.55;;
15281;SDS011;7742;44.320;19.820;2023-01-24T06:26:26;19.23;;;18.23;;
15281;SDS011;7742;44.320;19.820;2023-01-24T06:28:53;19.10;;;18.10;;
15281;SDS011;7742;44.320;19.820;2023-01-24T06:31:24;19.50;;;18.60;;
15281;SDS011;7742;44.320;19.820;2023-01-24T06:36:50;18.83;;;17.83;;
15281;SDS011;7742;44.320;19.820;2023-01-24T06:39:25;18.27;;;17.35;;
15281;SDS011;7742;44.320;19.820;2023-01-24T06:41:54;18.10;;;17.30;;
15281;SDS011;7742;44.320;19.820;2023-01-24T06:44:22;18.48;;;17.50;;
15281;SDS011;7742;44.320;19.820;2023-01-24T06:46:51;18.20;;;17.30;;
15281;SDS011;7742;44.320;19.820;2023-01-24T06:49:18;18.52;;;17.55;;
15281;SDS011;7742;44.320;19.820;2023-01-24T06:51:48;18.67;;;17.77;;
15281;SDS011;7742;44.320;19.820;2023-01-24T06:54:16;20.05;;;19.05;;
15281;SDS011;7742;44.320;19.820;2023-01-24T06:56:43;18.90;;;18.00;;
15281;SDS011;7742;44.320;19.820;2023-01-24T06:59:10;23.73;;;22.13;;
15281;SDS011;7742;44.320;19.820;2023-01-24T07:01:37;43.63;;;38.88;;
15281;SDS011;7742;44.320;19.820;2023-01-24T07:04:06;40.35;;;36.08;;
15281;SDS011;7742;44.320;19.820;2023-01-24T07:06:33;29.00;;;26.98;;
15281;SDS011;7742;44.320;19.820;2023-01-24T07:09:00;26.02;;;24.23;;
15281;SDS011;7742;44.320;19.820;2023-01-24T07:11:27;25.23;;;23.73;;
15281;SDS011;7742;44.320;19.820;2023-01-24T07:13:55;19.33;;;18.42;;
15281;SDS011;7742;44.320;19.820;2023-01-24T07:16:22;17.10;;;16.30;;
15281;SDS011;7742;44.320;19.820;2023-01-24T07:18:49;16.92;;;16.13;;
15281;SDS011;7742;44.320;19.820;2023-01-24T07:21:19;16.83;;;16.02;;
15281;SDS011;7742;44.320;19.820;2023-01-24T07:23:47;17.15;;;16.35;;
15281;SDS011;7742;44.320;19.820;2023-01-24T07:26:16;16.85;;;16.05;;
15281;SDS011;7742;44.320;19.820;2023-01-24T07:28:43;17.10;;;16.30;;
15281;SDS011;7742;44.320;19.820;2023-01-24T07:31:11;17.20;;;16.40;;
15281;SDS011;7742;44.320;19.820;2023-01-24T07:33:39;16.23;;;15.52;;
15281;SDS011;7742;44.320;19.820;2023-01-24T07:36:12;15.85;;;15.15;;
15281;SDS011;7742;44.320;19.820;2023-01-24T07:38:42;16.00;;;15.20;;
15281;SDS011;7742;44.320;19.820;2023-01-24T07:41:09;17.13;;;16.20;;
15281;SDS011;7742;44.320;19.820;2023-01-24T07:43:36;18.55;;;17.50;;
15281;SDS011;7742;44.320;19.820;2023-01-24T07:46:04;16.95;;;16.05;;
15281;SDS011;7742;44.320;19.820;2023-01-24T07:48:31;17.77;;;16.98;;
15281;SDS011;7742;44.320;19.820;2023-01-24T07:50:58;18.77;;;17.60;;
15281;SDS011;7742;44.320;19.820;2023-01-24T07:53:25;18.33;;;17.33;;
15281;SDS011;7742;44.320;19.820;2023-01-24T07:55:54;18.10;;;17.17;;
15281;SDS011;7742;44.320;19.820;2023-01-24T07:58:24;17.20;;;16.40;;
15281;SDS011;7742;44.320;19.820;2023-01-24T08:00:51;17.55;;;16.45;;
15281;SDS011;7742;44.320;19.820;2023-01-24T08:03:18;19.25;;;17.42;;
15281;SDS011;7742;44.320;19.820;2023-01-24T08:05:46;17.33;;;16.42;;
15281;SDS011;7742;44.320;19.820;2023-01-24T08:08:13;19.15;;;17.65;;
15281;SDS011;7742;44.320;19.820;2023-01-24T08:10:40;19.08;;;17.38;;
15281;SDS011;7742;44.320;19.820;2023-01-24T08:13:08;18.10;;;17.17;;
15281;SDS011;7742;44.320;19.820;2023-01-24T08:15:36;18.03;;;17.03;;
15281;SDS011;7742;44.320;19.820;2023-01-24T08:18:03;17.67;;;16.77;;
15281;SDS011;7742;44.320;19.820;2023-01-24T08:20:30;17.20;;;16.33;;
15281;SDS011;7742;44.320;19.820;2023-01-24T08:22:57;17.00;;;16.20;;
15281;SDS011;7742;44.320;19.820;2023-01-24T08:25:24;16.23;;;15.43;;
15281;SDS011;7742;44.320;19.820;2023-01-24T08:27:52;15.90;;;15.10;;
15281;SDS011;7742;44.320;19.820;2023-01-24T08:30:21;16.20;;;15.43;;
15281;SDS011;7742;44.320;19.820;2023-01-24T08:32:48;20.30;;;19.20;;
15281;SDS011;7742;44.320;19.820;2023-01-24T08:35:15;16.67;;;15.88;;
15281;SDS011;7742;44.320;19.820;2023-01-24T08:37:43;19.05;;;17.95;;
15281;SDS011;7742;44.320;19.820;2023-01-24T08:40:10;17.77;;;16.80;;
15281;SDS011;7742;44.320;19.820;2023-01-24T08:42:38;18.25;;;17.17;;
15281;SDS011;7742;44.320;19.820;2023-01-24T08:45:05;16.73;;;15.82;;
15281;SDS011;7742;44.320;19.820;2023-01-24T08:47:35;17.60;;;16.70;;
15281;SDS011;7742;44.320;19.820;2023-01-24T08:50:02;17.70;;;16.75;;
15281;SDS011;7742;44.320;19.820;2023-01-24T08:52:29;17.40;;;16.60;;
15281;SDS011;7742;44.320;19.820;2023-01-24T08:54:56;17.87;;;16.80;;
15281;SDS011;7742;44.320;19.820;2023-01-24T08:57:23;16.97;;;16.07;;
15281;SDS011;7742;44.320;19.820;2023-01-24T08:59:50;17.90;;;16.90;;
15281;SDS011;7742;44.320;19.820;2023-01-24T09:02:18;18.10;;;17.20;;
15281;SDS011;7742;44.320;19.820;2023-01-24T09:04:47;18.25;;;17.25;;
15281;SDS011;7742;44.320;19.820;2023-01-24T09:07:14;17.90;;;16.90;;
15281;SDS011;7742;44.320;19.820;2023-01-24T09:09:41;19.15;;;18.15;;
15281;SDS011;7742;44.320;19.820;2023-01-24T09:12:08;18.73;;;17.73;;
15281;SDS011;7742;44.320;19.820;2023-01-24T09:14:35;19.00;;;17.95;;
15281;SDS011;7742;44.320;19.820;2023-01-24T09:17:02;18.58;;;17.58;;
15281;SDS011;7742;44.320;19.820;2023-01-24T09:19:29;18.42;;;17.42;;
15281;SDS011;7742;44.320;19.820;2023-01-24T09:21:58;19.25;;;18.25;;
15281;SDS011;7742;44.320;19.820;2023-01-24T09:24:25;19.50;;;18.40;;
15281;SDS011;7742;44.320;19.820;2023-01-24T09:26:52;18.27;;;17.35;;
15281;SDS011;7742;44.320;19.820;2023-01-24T09:29:20;19.17;;;18.10;;
15281;SDS011;7742;44.320;19.820;2023-01-24T09:31:47;18.83;;;17.83;;
15281;SDS011;7742;44.320;19.820;2023-01-24T09:34:14;18.63;;;17.63;;
15281;SDS011;7742;44.320;19.820;2023-01-24T09:36:42;18.77;;;17.77;;
15281;SDS011;7742;44.320;19.820;2023-01-24T09:39:11;19.02;;;18.00;;
15281;SDS011;7742;44.320;19.820;2023-01-24T09:41:43;19.47;;;18.37;;
15281;SDS011;7742;44.320;19.820;2023-01-24T09:44:15;19.10;;;18.10;;
15281;SDS011;7742;44.320;19.820;2023-01-24T09:46:45;19.13;;;18.02;;
15281;SDS011;7742;44.320;19.820;2023-01-24T09:49:17;19.13;;;17.92;;
15281;SDS011;7742;44.320;19.820;2023-01-24T09:51:50;19.27;;;18.17;;
15281;SDS011;7742;44.320;19.820;2023-01-24T09:54:28;20.40;;;19.15;;
15281;SDS011;7742;44.320;19.820;2023-01-24T09:56:58;20.08;;;18.88;;
15281;SDS011;7742;44.320;19.820;2023-01-24T09:59:29;20.33;;;19.02;;
15281;SDS011;7742;44.320;19.820;2023-01-24T10:02:01;19.58;;;18.30;;
15281;SDS011;7742;44.320;19.820;2023-01-24T10:04:30;19.30;;;18.13;;
15281;SDS011;7742;44.320;19.820;2023-01-24T10:07:08;20.30;;;18.83;;
15281;SDS011;7742;44.320;19.820;2023-01-24T10:10:02;19.85;;;18.65;;
15281;SDS011;7742;44.320;19.820;2023-01-24T10:12:38;19.88;;;18.33;;
15281;SDS011;7742;44.320;19.820;2023-01-24T10:15:16;21.10;;;19.48;;
15281;SDS011;7742;44.320;19.820;2023-01-24T10:17:55;19.15;;;18.02;;
15281;SDS011;7742;44.320;19.820;2023-01-24T10:20:55;20.58;;;19.45;;
15281;SDS011;7742;44.320;19.820;2023-01-24T10:23:29;20.30;;;19.15;;
15281;SDS011;7742;44.320;19.820;2023-01-24T10:26:01;20.67;;;19.38;;
15281;SDS011;7742;44.320;19.820;2023-01-24T10:28:33;20.83;;;19.63;;
15281;SDS011;7742;44.320;19.820;2023-01-24T10:31:07;22.65;;;20.52;;
15281;SDS011;7742;44.320;19.820;2023-01-24T10:33:40;20.17;;;19.03;;
15281;SDS011;7742;44.320;19.820;2023-01-24T10:36:13;20.83;;;19.40;;
15281;SDS011;7742;44.320;19.820;2023-01-24T10:38:43;21.30;;;19.90;;
15281;SDS011;7742;44.320;19.820;2023-01-24T10:41:22;21.40;;;20.07;;
15281;SDS011;7742;44.320;19.820;2023-01-24T10:43:52;19.50;;;18.33;;
15281;SDS011;7742;44.320;19.820;2023-01-24T10:49:36;20.17;;;19.08;;
15281;SDS011;7742;44.320;19.820;2023-01-24T10:52:08;20.85;;;19.55;;
15281;SDS011;7742;44.320;19.820;2023-01-24T10:54:47;20.85;;;19.75;;
15281;SDS011;7742;44.320;19.820;2023-01-24T10:57:24;21.15;;;19.95;;
15281;SDS011;7742;44.320;19.820;2023-01-24T11:00:00;21.00;;;19.80;;
15281;SDS011;7742;44.320;19.820;2023-01-24T11:02:31;19.38;;;18.27;;
15281;SDS011;7742;44.320;19.820;2023-01-24T11:05:00;18.27;;;17.27;;
15281;SDS011;7742;44.320;19.820;2023-01-24T11:07:30;20.48;;;19.38;;
15281;SDS011;7742;44.320;19.820;2023-01-24T11:09:58;19.58;;;18.55;;
15281;SDS011;7742;44.320;19.820;2023-01-24T11:12:28;19.67;;;18.65;;
15281;SDS011;7742;44.320;19.820;2023-01-24T11:14:55;19.30;;;18.20;;
15281;SDS011;7742;44.320;19.820;2023-01-24T11:17:29;19.38;;;18.17;;
15281;SDS011;7742;44.320;19.820;2023-01-24T11:19:58;19.33;;;18.33;;
15281;SDS011;7742;44.320;19.820;2023-01-24T11:22:28;20.27;;;19.17;;
15281;SDS011;7742;44.320;19.820;2023-01-24T11:25:00;18.92;;;17.92;;
15281;SDS011;7742;44.320;19.820;2023-01-24T11:27:31;19.63;;;18.63;;
15281;SDS011;7742;44.320;19.820;2023-01-24T11:30:05;19.55;;;18.55;;
15281;SDS011;7742;44.320;19.820;2023-01-24T11:32:36;19.90;;;18.70;;
15281;SDS011;7742;44.320;19.820;2023-01-24T11:35:09;19.00;;;18.00;;
15281;SDS011;7742;44.320;19.820;2023-01-24T11:37:45;17.67;;;16.77;;
15281;SDS011;7742;44.320;19.820;2023-01-24T11:40:28;18.23;;;17.33;;
15281;SDS011;7742;44.320;19.820;2023-01-24T11:43:17;18.30;;;17.40;;
15281;SDS011;7742;44.320;19.820;2023-01-24T11:48:49;17.77;;;16.88;;
15281;SDS011;7742;44.320;19.820;2023-01-24T11:51:22;18.95;;;17.95;;
15281;SDS011;7742;44.320;19.820;2023-01-24T11:54:00;19.48;;;18.45;;
15281;SDS011;7742;44.320;19.820;2023-01-24T11:56:46;17.50;;;16.60;;
15281;SDS011;7742;44.320;19.820;2023-01-24T11:59:21;17.13;;;16.30;;
15281;SDS011;7742;44.320;19.820;2023-01-24T12:01:59;17.33;;;16.42;;
15281;SDS011;7742;44.320;19.820;2023-01-24T12:04:42;16.90;;;16.10;;
15281;SDS011;7742;44.320;19.820;2023-01-24T12:07:14;17.52;;;16.63;;
15281;SDS011;7742;44.320;19.820;2023-01-24T12:09:47;17.85;;;16.95;;
15281;SDS011;7742;44.320;19.820;2023-01-24T12:12:17;16.70;;;15.90;;
15281;SDS011;7742;44.320;19.820;2023-01-24T12:14:54;20.85;;;19.63;;
15281;SDS011;7742;44.320;19.820;2023-01-24T12:17:35;18.58;;;17.58;;
15281;SDS011;7742;44.320;19.820;2023-01-24T12:20:31;18.00;;;17.10;;
15281;SDS011;7742;44.320;19.820;2023-01-24T12:23:10;18.02;;;17.02;;
15281;SDS011;7742;44.320;19.820;2023-01-24T12:25:41;18.77;;;17.77;;
15281;SDS011;7742;44.320;19.820;2023-01-24T12:28:11;19.50;;;18.50;;
15281;SDS011;7742;44.320;19.820;2023-01-24T12:30:41;19.45;;;18.45;;
15281;SDS011;7742;44.320;19.820;2023-01-24T12:33:11;19.52;;;18.52;;
15281;SDS011;7742;44.320;19.820;2023-01-24T12:35:44;20.08;;;18.98;;
15281;SDS011;7742;44.320;19.820;2023-01-24T12:38:17;19.73;;;18.63;;
15281;SDS011;7742;44.320;19.820;2023-01-24T12:40:46;21.00;;;19.90;;
15281;SDS011;7742;44.320;19.820;2023-01-24T12:43:19;20.27;;;19.17;;
15281;SDS011;7742;44.320;19.820;2023-01-24T12:45:53;20.23;;;19.13;;
15281;SDS011;7742;44.320;19.820;2023-01-24T12:48:26;20.20;;;19.00;;
15281;SDS011;7742;44.320;19.820;2023-01-24T12:51:01;21.07;;;19.87;;
15281;SDS011;7742;44.320;19.820;2023-01-24T12:53:31;20.10;;;19.00;;
15281;SDS011;7742;44.320;19.820;2023-01-24T12:56:01;21.13;;;19.85;;
15281;SDS011;7742;44.320;19.820;2023-01-24T12:58:32;20.20;;;19.10;;
15281;SDS011;7742;44.320;19.820;2023-01-24T13:01:05;21.42;;;20.23;;
15281;SDS011;7742;44.320;19.820;2023-01-24T13:03:59;21.02;;;19.88;;
15281;SDS011;7742;44.320;19.820;2023-01-24T13:06:38;21.08;;;19.92;;
15281;SDS011;7742;44.320;19.820;2023-01-24T13:09:13;20.40;;;19.20;;
15281;SDS011;7742;44.320;19.820;2023-01-24T13:11:44;20.85;;;19.65;;
15281;SDS011;7742;44.320;19.820;2023-01-24T13:14:14;21.70;;;20.50;;
15281;SDS011;7742;44.320;19.820;2023-01-24T13:16:52;19.65;;;18.65;;
15281;SDS011;7742;44.320;19.820;2023-01-24T13:19:30;20.07;;;18.97;;
15281;SDS011;7742;44.320;19.820;2023-01-24T13:22:16;20.33;;;19.30;;
15281;SDS011;7742;44.320;19.820;2023-01-24T13:24:56;19.10;;;18.10;;
15281;SDS011;7742;44.320;19.820;2023-01-24T13:27:31;18.80;;;17.90;;
15281;SDS011;7742;44.320;19.820;2023-01-24T13:32:49;18.02;;;17.13;;
15281;SDS011;7742;44.320;19.820;2023-01-24T13:35:19;17.37;;;16.57;;
15281;SDS011;7742;44.320;19.820;2023-01-24T13:37:50;18.10;;;17.20;;
15281;SDS011;7742;44.320;19.820;2023-01-24T13:40:21;18.20;;;17.30;;
15281;SDS011;7742;44.320;19.820;2023-01-24T13:42:51;18.00;;;17.00;;
15281;SDS011;7742;44.320;19.820;2023-01-24T13:54:19;17.10;;;16.30;;
15281;SDS011;7742;44.320;19.820;2023-01-24T13:59:57;17.03;;;16.23;;
15281;SDS011;7742;44.320;19.820;2023-01-24T14:02:29;17.00;;;16.20;;
15281;SDS011;7742;44.320;19.820;2023-01-24T14:04:59;17.85;;;16.95;;
15281;SDS011;7742;44.320;19.820;2023-01-24T14:07:26;18.25;;;17.25;;
15281;SDS011;7742;44.320;19.820;2023-01-24T14:09:58;18.88;;;17.98;;
15281;SDS011;7742;44.320;19.820;2023-01-24T14:12:25;18.77;;;17.88;;
15281;SDS011;7742;44.320;19.820;2023-01-24T14:14:59;19.10;;;18.13;;
15281;SDS011;7742;44.320;19.820;2023-01-24T14:17:43;19.02;;;18.02;;
15281;SDS011;7742;44.320;19.820;2023-01-24T14:20:33;19.05;;;18.15;;
15281;SDS011;7742;44.320;19.820;2023-01-24T14:23:04;19.52;;;18.60;;
15281;SDS011;7742;44.320;19.820;2023-01-24T14:25:41;18.25;;;17.30;;
15281;SDS011;7742;44.320;19.820;2023-01-24T14:28:24;17.95;;;17.13;;
15281;SDS011;7742;44.320;19.820;2023-01-24T14:30:56;18.05;;;17.17;;
15281;SDS011;7742;44.320;19.820;2023-01-24T14:33:33;17.98;;;17.13;;
15281;SDS011;7742;44.320;19.820;2023-01-24T14:36:11;18.20;;;17.30;;
15281;SDS011;7742;44.320;19.820;2023-01-24T14:38:42;18.40;;;17.45;;
15281;SDS011;7742;44.320;19.820;2023-01-24T14:41:13;19.63;;;18.63;;
15281;SDS011;7742;44.320;19.820;2023-01-24T14:43:46;17.77;;;16.90;;
15281;SDS011;7742;44.320;19.820;2023-01-24T14:46:16;19.25;;;18.33;;
15281;SDS011;7742;44.320;19.820;2023-01-24T14:48:47;19.30;;;18.30;;
15281;SDS011;7742;44.320;19.820;2023-01-24T14:51:16;19.08;;;18.17;;
15281;SDS011;7742;44.320;19.820;2023-01-24T14:53:48;17.40;;;16.60;;
15281;SDS011;7742;44.320;19.820;2023-01-24T14:56:16;18.05;;;17.15;;
15281;SDS011;7742;44.320;19.820;2023-01-24T14:58:43;18.10;;;17.20;;
15281;SDS011;7742;44.320;19.820;2023-01-24T15:01:23;18.05;;;17.25;;
15281;SDS011;7742;44.320;19.820;2023-01-24T15:03:52;18.40;;;17.60;;
15281;SDS011;7742;44.320;19.820;2023-01-24T15:06:24;17.90;;;17.10;;